Eastpoint, Pennsylvania
Current Conditions -  °F | °C
As of 2:54 PM on Sunday 21 Dec 2014 (Local Time) from KIPT Reporting Station
Scattered Clouds Scattered Clouds  
Wind Chill: 31°   Ceiling: Unl
Heat Index: 35°   Visibility: 10mi
Dew Point: 19°   Wind: 5mph
Humidity: 52%   Direction: 250°WSW
Pressure: 30.28"   Gusts: NA
Location:  41.5548°N, 76.8911°W
Report Text: KIPT 211954Z 25004KT 10SM SCT034 02/M07 A3028 RMK AO2 SLP261 T00171072
Loading
Personal Weather Stations






























Interactive Weather Map New forecast layout! Learn more

10-Day Weather Forecast

Advertisements
Track Severe Weather on mobile